Time;durP1;ratioP1;P1;durP2;ratioP2;P2;SDS_P1;SDS_P2;PMS_P1;PMS_P2;Temp;Humidity;BMP_temperature;BMP_pressure;BME280_temperature;BME280_humidity;BME280_pressure;Samples;Min_cycle;Max_cycle;Signal;HPM_P1;HPM_P2
2021/01/02 00:00:13;;;;;;;35.03;17.58;;;1.60;99.90;;;;;;4767880;30;20143;-78
2021/01/02 00:03:07;;;;;;;31.60;17.52;;;1.60;99.90;;;;;;4782994;30;20127;-77
2021/01/02 00:05:57;;;;;;;30.30;17.35;;;1.60;99.90;;;;;;4767970;30;20170;-78
2021/01/02 00:08:32;;;;;;;28.67;17.13;;;1.60;99.90;;;;;;4781955;29;20683;-78
2021/01/02 00:11:25;;;;;;;32.63;18.10;;;1.60;99.90;;;;;;4768038;29;20048;-78
2021/01/02 00:14:13;;;;;;;31.05;18.10;;;1.60;99.90;;;;;;4767294;30;20075;-78
2021/01/02 00:16:51;;;;;;;31.35;16.17;;;1.60;99.90;;;;;;4767942;30;20086;-78
2021/01/02 00:19:47;;;;;;;27.75;16.45;;;1.60;99.90;;;;;;4767333;29;20052;-78
2021/01/02 00:22:28;;;;;;;29.45;17.02;;;1.60;99.90;;;;;;4782878;30;20109;-78
2021/01/02 00:25:04;;;;;;;31.35;18.05;;;1.60;99.90;;;;;;4767742;29;20151;-78
2021/01/02 00:27:46;;;;;;;32.42;16.98;;;1.60;99.90;;;;;;4767225;29;20526;-79
2021/01/02 00:30:52;;;;;;;29.15;16.92;;;1.50;99.90;;;;;;4767380;29;20065;-78
2021/01/02 00:34:04;;;;;;;37.70;18.13;;;1.60;99.90;;;;;;4767244;29;20131;-78
2021/01/02 00:36:38;;;;;;;31.08;16.50;;;1.60;99.90;;;;;;4753164;30;20500;-78
2021/01/02 00:39:19;;;;;;;34.85;17.40;;;1.60;99.90;;;;;;4767329;29;20142;-78
2021/01/02 00:41:52;;;;;;;34.30;18.98;;;1.60;99.90;;;;;;4767281;29;20146;-78
2021/01/02 00:44:24;;;;;;;26.63;13.97;;;1.60;99.90;;;;;;4766919;29;20134;-78
2021/01/02 00:46:57;;;;;;;31.67;16.92;;;1.50;99.90;;;;;;4766730;30;20396;-78
2021/01/02 00:49:30;;;;;;;30.52;16.38;;;1.60;99.90;;;;;;4766790;29;20516;-78
2021/01/02 00:52:42;;;;;;;30.73;17.63;;;1.60;99.90;;;;;;4767118;30;20071;-79
2021/01/02 00:55:15;;;;;;;32.95;16.98;;;1.50;99.90;;;;;;4767132;29;20589;-78
2021/01/02 00:57:49;;;;;;;28.92;16.92;;;1.60;99.90;;;;;;4766567;29;20044;-78
2021/01/02 01:00:23;;;;;;;30.40;17.83;;;1.50;99.90;;;;;;4781816;30;20048;-78
2021/01/02 01:03:06;;;;;;;27.98;16.08;;;1.50;99.90;;;;;;4766819;30;20051;-78
2021/01/02 01:05:38;;;;;;;38.70;18.52;;;1.50;99.90;;;;;;4766953;29;20512;-79
2021/01/02 01:08:15;;;;;;;31.08;16.38;;;1.50;99.90;;;;;;4766357;29;20052;-78
2021/01/02 01:10:42;;;;;;;30.02;17.05;;;1.50;99.90;;;;;;4767098;30;20051;-78
2021/01/02 01:13:24;;;;;;;30.20;17.48;;;1.50;99.90;;;;;;4766817;29;20139;-78
2021/01/02 01:15:56;;;;;;;32.58;17.90;;;1.50;99.90;;;;;;4781327;29;20151;-78
2021/01/02 01:18:53;;;;;;;33.20;17.75;;;1.50;99.90;;;;;;4764341;30;20047;-78
2021/01/02 01:21:29;;;;;;;31.65;17.13;;;1.50;99.90;;;;;;4771694;29;20082;-78
2021/01/02 01:24:09;;;;;;;33.05;19.30;;;1.50;99.90;;;;;;4772500;30;20080;-78
2021/01/02 01:27:02;;;;;;;33.92;17.60;;;1.50;99.90;;;;;;4780376;30;20082;-77
2021/01/02 01:29:49;;;;;;;27.02;16.00;;;1.50;99.90;;;;;;4771199;29;20055;-77
2021/01/02 01:32:20;;;;;;;37.83;18.20;;;1.40;99.90;;;;;;4776969;30;20090;-78
2021/01/02 01:35:00;;;;;;;27.98;17.05;;;1.50;99.90;;;;;;4784340;29;20134;-78
2021/01/02 01:37:32;;;;;;;33.38;17.05;;;1.40;99.90;;;;;;4774789;29;20043;-78
2021/01/02 01:40:04;;;;;;;30.33;16.35;;;1.50;99.90;;;;;;4763408;30;20075;-78
2021/01/02 01:42:45;;;;;;;35.22;19.00;;;1.40;99.90;;;;;;4747592;30;20139;-78
2021/01/02 01:45:26;;;;;;;32.28;17.75;;;1.40;99.90;;;;;;4749146;30;20579;-78
2021/01/02 01:48:12;;;;;;;32.53;17.92;;;1.40;99.90;;;;;;4748662;30;20074;-77
2021/01/02 01:50:56;;;;;;;31.20;16.92;;;1.50;99.90;;;;;;4763480;30;20120;-78
2021/01/02 01:53:58;;;;;;;37.30;16.50;;;1.50;99.90;;;;;;4763493;30;20055;-78
2021/01/02 01:56:38;;;;;;;35.35;19.05;;;1.50;99.90;;;;;;4749515;30;20417;-78
2021/01/02 01:59:07;;;;;;;35.13;17.00;;;1.50;99.90;;;;;;4764101;30;20064;-77
2021/01/02 02:01:37;;;;;;;31.67;17.08;;;1.50;99.90;;;;;;4763722;30;20064;-78
2021/01/02 02:04:12;;;;;;;31.20;17.23;;;1.50;99.90;;;;;;4749427;30;20143;-78
2021/01/02 02:06:58;;;;;;;29.95;16.02;;;1.50;99.90;;;;;;4762983;30;20087;-77
2021/01/02 02:09:59;;;;;;;32.10;16.50;;;1.50;99.90;;;;;;4748518;30;20048;-78
2021/01/02 02:12:35;;;;;;;39.35;19.50;;;1.50;99.90;;;;;;4735770;30;20417;-78
2021/01/02 02:15:10;;;;;;;45.50;20.80;;;1.50;99.90;;;;;;4750759;30;20082;-78
2021/01/02 02:17:43;;;;;;;32.63;18.45;;;1.40;99.90;;;;;;4752537;30;20079;-78
2021/01/02 02:20:15;;;;;;;28.90;15.68;;;1.40;99.90;;;;;;4766868;30;20071;-77
2021/01/02 02:23:01;;;;;;;28.73;16.30;;;1.40;99.90;;;;;;4753122;30;20059;-77
2021/01/02 02:25:57;;;;;;;33.10;16.60;;;1.40;99.90;;;;;;4752254;30;20052;-78
2021/01/02 02:28:51;;;;;;;30.73;17.02;;;1.40;99.90;;;;;;4752079;30;20080;-78
2021/01/02 02:31:23;;;;;;;29.00;15.48;;;1.40;99.90;;;;;;4765946;30;20055;-78
2021/01/02 02:33:59;;;;;;;27.70;15.82;;;1.40;99.90;;;;;;4752447;30;20542;-77
2021/01/02 02:36:31;;;;;;;30.58;16.27;;;1.40;99.90;;;;;;4751612;30;20056;-78
2021/01/02 02:39:00;;;;;;;30.63;16.80;;;1.40;99.90;;;;;;4765935;29;20117;-77
2021/01/02 02:41:43;;;;;;;27.48;14.43;;;1.40;99.90;;;;;;4751896;30;20102;-77
2021/01/02 02:44:21;;;;;;;34.83;17.20;;;1.40;99.90;;;;;;4751931;30;20114;-78
2021/01/02 02:46:50;;;;;;;33.10;16.67;;;1.40;99.90;;;;;;4751789;30;20136;-78
2021/01/02 02:49:21;;;;;;;31.08;16.45;;;1.40;99.90;;;;;;4751497;30;20048;-78
2021/01/02 02:52:23;;;;;;;31.42;15.55;;;1.40;99.90;;;;;;4751885;30;20063;-78
2021/01/02 02:54:50;;;;;;;30.02;16.02;;;1.40;99.90;;;;;;4752632;30;20083;-77
2021/01/02 02:57:17;;;;;;;28.67;15.65;;;1.40;99.90;;;;;;4751547;30;20148;-78
2021/01/02 02:59:48;;;;;;;26.60;15.15;;;1.40;99.90;;;;;;4751217;30;20526;-77
2021/01/02 03:02:15;;;;;;;29.35;15.20;;;1.40;99.90;;;;;;4751361;30;20094;-78
2021/01/02 03:04:46;;;;;;;29.08;16.60;;;1.40;99.90;;;;;;4751219;30;20550;-78
2021/01/02 03:07:17;;;;;;;29.65;15.38;;;1.40;99.90;;;;;;4751497;30;20058;-78
2021/01/02 03:09:49;;;;;;;30.35;15.38;;;1.40;99.90;;;;;;4751913;30;20521;-78
2021/01/02 03:12:15;;;;;;;31.58;16.15;;;1.40;99.90;;;;;;4751323;30;20080;-78
2021/01/02 03:14:47;;;;;;;30.00;17.05;;;1.40;99.90;;;;;;4751337;30;20135;-78
2021/01/02 03:17:13;;;;;;;29.50;15.88;;;1.40;99.90;;;;;;4751019;30;20109;-78
2021/01/02 03:19:44;;;;;;;30.77;16.60;;;1.30;99.90;;;;;;4751638;30;20159;-78
2021/01/02 03:22:15;;;;;;;29.33;17.05;;;1.40;99.90;;;;;;4751157;30;20091;-77
2021/01/02 03:24:46;;;;;;;26.92;14.55;;;1.40;99.90;;;;;;4750989;30;20054;-77
2021/01/02 03:27:18;;;;;;;29.35;15.80;;;1.40;99.90;;;;;;4751029;30;20052;-77
2021/01/02 03:29:44;;;;;;;34.83;17.23;;;1.40;99.90;;;;;;4750911;30;20048;-77
2021/01/02 03:32:15;;;;;;;26.52;15.45;;;1.40;99.90;;;;;;4751715;30;20072;-77
2021/01/02 03:34:41;;;;;;;33.28;16.23;;;1.40;99.90;;;;;;4750769;30;20052;-77
2021/01/02 03:37:08;;;;;;;30.98;16.20;;;1.40;99.90;;;;;;4765626;30;20090;-77
2021/01/02 03:39:34;;;;;;;31.70;16.23;;;1.40;99.90;;;;;;4750483;30;20084;-77
2021/01/02 03:42:07;;;;;;;25.85;14.65;;;1.40;99.90;;;;;;4750784;30;20081;-78
2021/01/02 03:44:39;;;;;;;28.70;14.80;;;1.40;99.90;;;;;;4750604;30;20146;-78
2021/01/02 03:47:10;;;;;;;29.38;15.90;;;1.40;99.90;;;;;;4751447;30;20298;-78
2021/01/02 03:49:37;;;;;;;26.65;14.65;;;1.30;99.90;;;;;;4750324;30;20056;-77
2021/01/02 03:52:08;;;;;;;26.40;14.25;;;1.30;99.90;;;;;;4750972;30;20406;-78
2021/01/02 03:54:40;;;;;;;26.52;14.88;;;1.30;99.90;;;;;;4750284;30;20512;-78
2021/01/02 03:57:06;;;;;;;25.85;14.15;;;1.30;99.90;;;;;;4750691;30;20087;-77
2021/01/02 03:59:37;;;;;;;22.52;13.70;;;1.30;99.90;;;;;;4750240;30;20135;-78
2021/01/02 04:02:08;;;;;;;27.33;14.82;;;1.30;99.90;;;;;;4751153;30;20049;-77
2021/01/02 04:04:34;;;;;;;27.40;15.63;;;1.30;99.90;;;;;;4750366;30;20056;-78
2021/01/02 04:07:06;;;;;;;26.45;14.68;;;1.30;99.90;;;;;;4751066;30;20052;-77
2021/01/02 04:09:37;;;;;;;26.58;15.70;;;1.30;99.90;;;;;;4750639;30;20139;-77
2021/01/02 04:12:09;;;;;;;28.05;15.80;;;1.30;99.90;;;;;;4736279;30;20046;-77
2021/01/02 04:14:40;;;;;;;26.05;15.70;;;1.30;99.90;;;;;;4750246;30;20044;-77
2021/01/02 04:17:11;;;;;;;28.88;14.27;;;1.30;99.90;;;;;;4750839;30;20592;-77
2021/01/02 04:19:43;;;;;;;29.95;16.27;;;1.30;99.90;;;;;;4750078;30;20055;-78
2021/01/02 04:22:09;;;;;;;27.15;14.18;;;1.30;99.90;;;;;;4750041;30;20155;-77
2021/01/02 04:24:40;;;;;;;25.08;14.00;;;1.30;99.90;;;;;;4750352;30;20074;-78
2021/01/02 04:27:07;;;;;;;24.48;13.88;;;1.30;99.90;;;;;;4750143;30;20135;-78
2021/01/02 04:29:38;;;;;;;24.38;14.05;;;1.30;99.90;;;;;;4764345;30;20483;-77
2021/01/02 04:32:09;;;;;;;26.85;13.93;;;1.20;99.90;;;;;;4750000;30;20127;-78
2021/01/02 04:34:36;;;;;;;28.63;14.13;;;1.20;99.90;;;;;;4750026;30;20054;-78
2021/01/02 04:37:03;;;;;;;31.08;15.18;;;1.20;99.90;;;;;;4750060;30;20143;-77
2021/01/02 04:39:29;;;;;;;24.38;13.30;;;1.20;99.90;;;;;;4751452;30;20090;-79
2021/01/02 04:42:01;;;;;;;26.20;13.73;;;1.20;99.90;;;;;;4749356;30;20079;-79
2021/01/02 04:44:33;;;;;;;27.75;14.45;;;1.20;99.90;;;;;;4749116;30;20139;-79
2021/01/02 04:47:06;;;;;;;23.60;12.95;;;1.10;99.90;;;;;;4749852;30;20479;-79
2021/01/02 04:49:38;;;;;;;26.20;13.88;;;1.10;99.90;;;;;;4748896;30;20509;-79
2021/01/02 04:52:10;;;;;;;25.35;13.68;;;1.20;99.90;;;;;;4750011;30;20102;-79
2021/01/02 04:54:47;;;;;;;25.88;14.15;;;1.20;99.90;;;;;;4748900;30;20139;-79
2021/01/02 04:57:19;;;;;;;27.08;15.25;;;1.20;99.90;;;;;;4749795;30;20147;-79
2021/01/02 04:59:51;;;;;;;23.85;13.27;;;1.20;99.90;;;;;;4763691;30;20056;-78
2021/01/02 05:02:22;;;;;;;25.85;14.38;;;1.20;99.90;;;;;;4749779;30;20441;-79
2021/01/02 05:04:54;;;;;;;24.77;13.95;;;1.20;99.90;;;;;;4749115;30;20158;-79
2021/01/02 05:07:27;;;;;;;26.52;13.55;;;1.20;99.90;;;;;;4748809;30;20068;-79
2021/01/02 05:09:58;;;;;;;24.88;12.82;;;1.20;99.90;;;;;;4748432;30;20147;-79
2021/01/02 05:12:33;;;;;;;28.38;14.43;;;1.20;99.90;;;;;;4749526;30;20505;-79
2021/01/02 05:15:11;;;;;;;25.50;12.82;;;1.20;99.90;;;;;;4748766;30;20075;-79
2021/01/02 05:17:42;;;;;;;25.45;12.85;;;1.20;99.90;;;;;;4748666;30;20120;-79
2021/01/02 05:20:15;;;;;;;29.13;14.85;;;1.20;99.90;;;;;;4748638;30;20094;-79
2021/01/02 05:22:47;;;;;;;26.00;15.10;;;1.30;99.90;;;;;;4749173;30;20080;-79
2021/01/02 05:25:22;;;;;;;24.10;13.60;;;1.20;99.90;;;;;;4748725;30;20139;-79
2021/01/02 05:27:53;;;;;;;25.13;14.52;;;1.20;99.90;;;;;;4763220;30;20479;-79
2021/01/02 05:30:28;;;;;;;27.30;14.63;;;1.20;99.90;;;;;;4762972;30;20417;-79
2021/01/02 05:33:09;;;;;;;23.75;13.23;;;1.30;99.90;;;;;;4748945;30;20072;-79
2021/01/02 05:35:42;;;;;;;23.52;13.38;;;1.30;99.90;;;;;;4748919;29;20068;-79
2021/01/02 05:38:25;;;;;;;28.35;14.55;;;1.30;99.90;;;;;;4749019;30;20074;-79
2021/01/02 05:40:59;;;;;;;24.83;13.57;;;1.30;99.90;;;;;;4748445;30;20521;-79
2021/01/02 05:43:30;;;;;;;24.50;14.98;;;1.20;99.90;;;;;;4749126;30;20079;-79
2021/01/02 05:46:05;;;;;;;23.75;13.85;;;1.30;99.90;;;;;;4748348;30;20056;-79
2021/01/02 05:48:36;;;;;;;25.38;13.70;;;1.30;99.90;;;;;;4748823;30;20150;-79
2021/01/02 05:51:11;;;;;;;25.13;15.48;;;1.30;99.90;;;;;;4748017;30;20059;-79
2021/01/02 05:53:43;;;;;;;24.67;14.55;;;1.20;99.90;;;;;;4748195;30;20156;-79
2021/01/02 05:56:13;;;;;;;32.88;21.58;;;1.20;99.90;;;;;;4749427;30;20131;-79
2021/01/02 05:58:45;;;;;;;24.52;14.38;;;1.20;99.90;;;;;;4748787;30;20143;-79
2021/01/02 06:01:18;;;;;;;27.70;15.23;;;1.20;99.90;;;;;;4748205;30;20072;-79
2021/01/02 06:03:50;;;;;;;22.60;13.85;;;1.20;99.90;;;;;;4747992;30;20068;-79
2021/01/02 06:06:21;;;;;;;25.60;13.98;;;1.20;99.90;;;;;;4763041;30;20461;-79
2021/01/02 06:08:52;;;;;;;29.15;15.32;;;1.10;99.90;;;;;;4747882;30;20127;-79
2021/01/02 06:11:24;;;;;;;27.10;16.40;;;1.20;99.90;;;;;;4759538;30;20044;-79
2021/01/02 06:13:52;;;;;;;30.55;17.75;;;1.10;99.90;;;;;;4766328;30;20528;-79
2021/01/02 06:16:25;;;;;;;28.63;15.73;;;1.10;99.90;;;;;;4765341;30;20144;-79
2021/01/02 06:18:56;;;;;;;29.30;16.48;;;1.10;99.90;;;;;;4765675;30;20067;-79
2021/01/02 06:21:29;;;;;;;26.33;15.20;;;1.10;99.90;;;;;;4779480;30;20044;-80
2021/01/02 06:24:01;;;;;;;27.80;14.80;;;1.10;99.90;;;;;;4765726;30;20083;-79
2021/01/02 06:26:33;;;;;;;26.25;15.20;;;1.10;99.90;;;;;;4765167;30;20615;-79
2021/01/02 06:29:05;;;;;;;25.33;14.45;;;1.10;99.90;;;;;;4765698;30;20054;-79
2021/01/02 06:31:37;;;;;;;21.60;13.60;;;1.10;99.90;;;;;;4765411;30;20488;-79
2021/01/02 06:34:10;;;;;;;26.33;14.60;;;1.10;99.90;;;;;;4779907;30;20131;-79
2021/01/02 06:36:41;;;;;;;27.48;16.05;;;1.10;99.90;;;;;;4765859;29;20055;-79
2021/01/02 06:39:16;;;;;;;24.15;14.45;;;1.10;99.90;;;;;;4765284;29;20532;-79
2021/01/02 06:41:48;;;;;;;31.40;17.38;;;1.10;99.90;;;;;;4765753;29;20547;-79
2021/01/02 06:44:43;;;;;;;30.38;16.50;;;1.00;99.90;;;;;;4765688;29;20166;-79
2021/01/02 06:47:21;;;;;;;30.65;17.00;;;1.10;99.90;;;;;;4765931;30;20139;-79
2021/01/02 06:49:53;;;;;;;31.08;16.40;;;1.10;99.90;;;;;;4765533;30;20075;-79
2021/01/02 06:52:35;;;;;;;29.70;14.50;;;1.10;99.90;;;;;;4765851;30;20048;-79
2021/01/02 06:55:37;;;;;;;28.45;17.02;;;1.10;99.90;;;;;;4780314;30;20471;-80
2021/01/02 06:58:16;;;;;;;25.70;14.20;;;1.10;99.90;;;;;;4754006;30;20078;-79
2021/01/02 07:00:47;;;;;;;29.85;15.55;;;1.10;99.90;;;;;;4765153;29;20051;-78
2021/01/02 07:03:40;;;;;;;27.35;15.35;;;1.10;99.90;;;;;;4782421;30;20550;-79
2021/01/02 07:06:18;;;;;;;23.27;13.57;;;1.10;99.90;;;;;;4768054;30;20143;-78
2021/01/02 07:08:56;;;;;;;29.33;15.93;;;1.10;99.90;;;;;;4767765;30;20411;-78
2021/01/02 07:11:36;;;;;;;28.50;15.95;;;1.10;99.90;;;;;;4767944;30;20083;-78
2021/01/02 07:14:07;;;;;;;38.38;20.08;;;1.10;99.90;;;;;;4781793;30;20051;-79
2021/01/02 07:16:47;;;;;;;31.80;16.88;;;1.10;99.90;;;;;;4767944;30;20079;-79
2021/01/02 07:22:04;;;;;;;32.15;17.60;;;1.10;99.90;;;;;;4767555;30;20531;-79
2021/01/02 07:24:50;;;;;;;32.72;17.63;;;1.00;99.90;;;;;;4767659;30;20150;-79
2021/01/02 07:27:28;;;;;;;28.70;17.10;;;1.10;99.90;;;;;;4767629;30;20086;-79
2021/01/02 07:30:06;;;;;;;24.83;16.33;;;1.10;99.90;;;;;;4767464;30;20043;-79
2021/01/02 07:32:42;;;;;;;24.27;15.02;;;1.10;99.90;;;;;;4767552;30;20082;-78
2021/01/02 07:35:15;;;;;;;23.00;15.10;;;1.10;99.90;;;;;;4781794;30;20134;-78
2021/01/02 07:37:47;;;;;;;25.83;15.50;;;1.10;99.90;;;;;;4767855;30;20082;-79
2021/01/02 07:40:19;;;;;;;27.23;15.80;;;1.10;99.90;;;;;;4782473;30;20113;-79
2021/01/02 07:42:52;;;;;;;25.00;15.80;;;1.10;99.90;;;;;;4766045;30;20047;-79
2021/01/02 07:45:25;;;;;;;26.60;14.45;;;1.10;99.90;;;;;;4767546;29;20141;-78
2021/01/02 07:47:58;;;;;;;27.65;15.00;;;1.20;99.90;;;;;;4766774;30;20151;-78
2021/01/02 07:50:31;;;;;;;22.67;13.95;;;1.40;99.90;;;;;;4781671;30;20134;-78
2021/01/02 07:53:02;;;;;;;24.50;14.73;;;1.40;99.90;;;;;;4781782;30;20054;-78
2021/01/02 07:55:34;;;;;;;27.98;15.05;;;1.40;99.90;;;;;;4767861;30;20047;-79
2021/01/02 07:58:06;;;;;;;29.00;16.73;;;1.30;99.90;;;;;;4767612;29;20066;-79
2021/01/02 08:00:38;;;;;;;28.08;16.58;;;1.30;99.90;;;;;;4782399;30;20400;-78
2021/01/02 08:03:12;;;;;;;24.75;15.35;;;1.30;99.90;;;;;;4769346;30;20138;-78
2021/01/02 08:05:45;;;;;;;23.95;14.85;;;1.30;99.90;;;;;;4783978;29;20135;-78
2021/01/02 08:08:12;;;;;;;23.77;14.50;;;1.30;99.90;;;;;;4769547;30;20138;-78
2021/01/02 08:10:38;;;;;;;30.92;18.83;;;1.20;99.90;;;;;;4770004;30;20075;-79
2021/01/02 08:13:04;;;;;;;26.25;16.85;;;1.20;99.90;;;;;;4784593;29;20560;-80
2021/01/02 08:15:33;;;;;;;24.08;14.45;;;1.20;99.90;;;;;;4777854;29;20106;-79
2021/01/02 08:18:09;;;;;;;23.05;13.77;;;1.20;99.90;;;;;;4781604;30;20047;-79
2021/01/02 08:20:40;;;;;;;24.23;14.15;;;1.10;99.90;;;;;;4781497;30;20524;-78
2021/01/02 08:23:14;;;;;;;23.73;14.05;;;1.20;99.90;;;;;;4772531;29;20142;-80
2021/01/02 08:25:46;;;;;;;22.83;13.25;;;1.10;99.90;;;;;;4779125;30;20055;-79
2021/01/02 08:28:18;;;;;;;24.80;14.27;;;1.20;99.90;;;;;;4763407;30;20043;-79
2021/01/02 08:30:49;;;;;;;24.92;14.70;;;1.20;99.90;;;;;;4799504;29;20292;-79
2021/01/02 08:33:21;;;;;;;31.85;18.05;;;1.20;99.90;;;;;;4785278;29;20503;-79
2021/01/02 08:35:53;;;;;;;22.38;13.25;;;1.20;99.90;;;;;;4784754;30;20051;-79
2021/01/02 08:38:28;;;;;;;21.75;12.75;;;1.20;99.90;;;;;;4785880;30;20141;-79
2021/01/02 08:40:59;;;;;;;24.45;12.95;;;1.20;99.90;;;;;;4799692;29;20059;-79
2021/01/02 08:43:30;;;;;;;24.42;12.85;;;1.20;99.90;;;;;;4784642;30;20055;-79
2021/01/02 08:46:09;;;;;;;25.15;14.60;;;1.20;99.90;;;;;;4784825;30;20058;-79
2021/01/02 08:48:47;;;;;;;23.30;13.80;;;1.20;99.90;;;;;;4784689;30;20482;-80
2021/01/02 08:51:25;;;;;;;21.77;13.02;;;1.20;99.90;;;;;;4784679;30;20432;-79
2021/01/02 08:53:56;;;;;;;22.63;12.65;;;1.20;99.90;;;;;;4762408;30;20048;-79
2021/01/02 08:56:27;;;;;;;23.20;12.98;;;1.20;99.90;;;;;;4777700;29;20075;-79
2021/01/02 08:58:59;;;;;;;36.92;20.80;;;1.20;99.90;;;;;;4761868;30;20055;-79
2021/01/02 09:01:31;;;;;;;32.67;17.48;;;1.30;99.90;;;;;;4762674;29;20607;-79
2021/01/02 09:04:12;;;;;;;35.97;21.83;;;1.30;99.90;;;;;;4762397;29;20049;-79
2021/01/02 09:06:43;;;;;;;34.45;19.85;;;1.30;99.90;;;;;;4777256;29;20135;-79
2021/01/02 09:09:14;;;;;;;25.67;15.20;;;1.30;99.90;;;;;;4761924;29;20058;-78
2021/01/02 09:11:48;;;;;;;24.50;14.50;;;1.30;99.90;;;;;;4764066;29;20048;-79
2021/01/02 09:14:20;;;;;;;23.75;13.50;;;1.40;99.90;;;;;;4778055;29;20048;-79
2021/01/02 09:17:02;;;;;;;25.33;14.05;;;1.50;99.90;;;;;;4784447;30;20055;-79
2021/01/02 09:19:33;;;;;;;23.73;13.02;;;1.50;99.90;;;;;;4773453;30;20063;-79
2021/01/02 09:22:16;;;;;;;27.40;14.75;;;1.50;99.90;;;;;;4766858;29;20134;-79
2021/01/02 09:24:47;;;;;;;28.00;14.47;;;1.60;99.90;;;;;;4772119;30;20044;-79
2021/01/02 09:27:19;;;;;;;25.45;14.02;;;1.70;99.90;;;;;;4779301;30;20378;-79
2021/01/02 09:29:50;;;;;;;23.88;14.13;;;1.70;99.90;;;;;;4766133;30;20139;-79
2021/01/02 09:32:17;;;;;;;24.15;13.43;;;1.80;99.90;;;;;;4751580;30;20113;-79
2021/01/02 09:34:48;;;;;;;26.75;15.32;;;1.80;99.90;;;;;;4766891;30;20101;-79
2021/01/02 09:37:19;;;;;;;33.78;19.92;;;1.90;99.90;;;;;;4768279;30;20496;-80
2021/01/02 09:40:10;;;;;;;30.73;17.15;;;1.90;99.90;;;;;;4755770;30;20052;-80
2021/01/02 09:42:36;;;;;;;31.70;17.20;;;1.90;99.90;;;;;;4755400;30;20113;-80
2021/01/02 09:45:03;;;;;;;36.13;20.58;;;2.00;99.90;;;;;;4754956;30;20154;-80
2021/01/02 09:47:34;;;;;;;28.88;17.40;;;2.00;99.90;;;;;;4756181;30;20043;-80
2021/01/02 09:50:06;;;;;;;28.67;16.50;;;2.00;99.90;;;;;;4755683;30;20062;-78
2021/01/02 09:58:30;;;;;;;33.10;19.63;;;2.10;99.90;;;;;;4997799;24;20063;-80
2021/01/02 10:00:57;;;;;;;33.03;19.95;;;2.20;99.90;;;;;;4772369;29;20057;-80
2021/01/02 10:03:28;;;;;;;28.38;17.00;;;2.20;99.90;;;;;;4771222;30;20508;-80
2021/01/02 10:06:00;;;;;;;26.60;16.13;;;2.20;99.90;;;;;;4755117;30;20063;-80
2021/01/02 10:08:26;;;;;;;23.90;14.88;;;2.20;99.90;;;;;;4769010;29;20071;-80
2021/01/02 10:10:53;;;;;;;22.88;14.13;;;2.30;99.90;;;;;;4754283;30;20048;-80
2021/01/02 10:13:20;;;;;;;23.45;14.43;;;2.30;99.90;;;;;;4769209;29;20121;-80
2021/01/02 10:15:47;;;;;;;24.08;14.07;;;2.30;99.90;;;;;;4754360;30;20052;-80
2021/01/02 10:18:14;;;;;;;22.60;13.38;;;2.30;99.90;;;;;;4769066;29;20105;-80
2021/01/02 10:20:40;;;;;;;20.48;14.18;;;2.30;99.90;;;;;;4769011;29;20112;-80
2021/01/02 10:23:07;;;;;;;25.58;15.20;;;2.30;99.90;;;;;;4753970;30;20520;-80
2021/01/02 10:25:34;;;;;;;24.60;15.32;;;2.30;99.90;;;;;;4769007;29;20117;-80
2021/01/02 10:28:06;;;;;;;25.42;14.52;;;2.40;99.90;;;;;;4754939;30;20526;-80
2021/01/02 10:30:37;;;;;;;20.88;13.80;;;2.30;99.90;;;;;;4755140;30;20068;-80
2021/01/02 10:33:10;;;;;;;21.73;13.30;;;2.30;99.90;;;;;;4770057;30;20051;-80
2021/01/02 10:35:42;;;;;;;22.17;13.53;;;2.20;99.90;;;;;;4755889;30;20043;-80
2021/01/02 10:38:13;;;;;;;25.30;15.95;;;2.20;99.90;;;;;;4754332;30;20305;-76
2021/01/02 10:40:44;;;;;;;25.98;16.02;;;2.30;99.90;;;;;;4783013;30;20128;-76
2021/01/02 10:43:15;;;;;;;26.38;16.27;;;2.30;99.90;;;;;;4754390;30;20054;-76
2021/01/02 10:45:47;;;;;;;25.67;15.13;;;2.30;99.90;;;;;;4773466;30;20328;-76
2021/01/02 10:48:13;;;;;;;22.25;15.07;;;2.40;99.90;;;;;;4772917;29;20106;-76
2021/01/02 10:50:44;;;;;;;21.60;13.77;;;2.40;99.90;;;;;;4787816;30;20052;-76
2021/01/02 10:53:15;;;;;;;25.90;14.93;;;2.40;99.90;;;;;;4771910;30;20056;-76
2021/01/02 10:55:46;;;;;;;25.10;16.52;;;2.40;99.90;;;;;;4768020;30;20143;-76
2021/01/02 10:58:18;;;;;;;23.63;15.02;;;2.40;99.90;;;;;;4770390;30;20199;-80
2021/01/02 11:00:50;;;;;;;22.48;15.18;;;2.40;99.90;;;;;;4772306;30;20089;-81
2021/01/02 11:09:34;;;;;;;22.30;14.48;;;2.20;99.90;;;;;;4878192;24;20079;-79
2021/01/02 11:12:04;;;;;;;24.05;15.82;;;2.20;99.90;;;;;;4793172;29;20051;-78
2021/01/02 11:14:31;;;;;;;21.65;14.60;;;2.20;99.90;;;;;;4799584;24;20205;-78
2021/01/02 11:16:58;;;;;;;24.40;14.93;;;2.20;99.90;;;;;;4777512;30;20085;-79
2021/01/02 11:19:30;;;;;;;21.85;14.02;;;2.10;99.90;;;;;;4792328;30;20431;-78
2021/01/02 11:22:00;;;;;;;21.85;14.32;;;2.10;99.90;;;;;;4792296;30;20419;-79
2021/01/02 11:24:33;;;;;;;20.58;13.63;;;2.10;99.90;;;;;;4792533;29;20047;-78
2021/01/02 11:27:03;;;;;;;22.00;13.60;;;2.00;99.90;;;;;;4792771;29;20054;-78
2021/01/02 11:29:32;;;;;;;21.58;14.25;;;2.00;99.90;;;;;;4777146;30;20554;-78
2021/01/02 11:32:01;;;;;;;23.10;14.50;;;2.00;99.90;;;;;;4777519;30;20115;-79
2021/01/02 11:34:29;;;;;;;22.75;14.38;;;2.00;99.90;;;;;;4964908;24;20062;-79
2021/01/02 11:37:05;;;;;;;26.02;15.68;;;2.00;99.90;;;;;;4791230;30;20135;-78
2021/01/02 11:39:38;;;;;;;26.70;16.65;;;1.90;99.90;;;;;;4796690;29;20534;-79
2021/01/02 11:42:15;;;;;;;26.30;16.60;;;1.90;99.90;;;;;;4803396;30;20086;-82
2021/01/02 11:44:56;;;;;;;26.13;16.02;;;1.80;99.90;;;;;;5020933;24;20059;-78
2021/01/02 11:47:22;;;;;;;28.83;17.05;;;1.80;99.90;;;;;;4808876;29;20481;-78
2021/01/02 11:49:50;;;;;;;26.70;16.27;;;1.80;99.90;;;;;;4796689;29;20507;-79
2021/01/02 11:52:16;;;;;;;25.05;15.65;;;1.80;99.90;;;;;;4810733;29;20078;-78
2021/01/02 11:54:43;;;;;;;30.63;19.20;;;1.70;99.90;;;;;;4789419;29;20518;-78
2021/01/02 11:57:20;;;;;;;29.23;16.83;;;1.70;99.90;;;;;;4791805;30;20059;-80
2021/01/02 11:59:47;;;;;;;23.73;14.18;;;1.70;99.90;;;;;;4804924;29;20109;-78
2021/01/02 12:02:14;;;;;;;24.25;14.40;;;1.80;99.90;;;;;;4774749;30;20405;-78
2021/01/02 12:04:43;;;;;;;28.65;18.85;;;1.70;99.90;;;;;;4804793;29;20511;-78
2021/01/02 12:07:19;;;;;;;28.42;19.08;;;1.80;99.90;;;;;;4790984;29;20071;-78
2021/01/02 12:09:51;;;;;;;23.90;16.95;;;1.70;99.90;;;;;;4789981;29;20047;-78
2021/01/02 12:12:22;;;;;;;22.85;13.98;;;1.60;99.90;;;;;;4774490;30;20511;-78
2021/01/02 12:14:54;;;;;;;24.15;15.07;;;1.60;99.90;;;;;;5264728;24;20053;-78
2021/01/02 12:17:21;;;;;;;20.90;13.57;;;1.60;99.90;;;;;;4788770;29;20059;-78
2021/01/02 12:19:53;;;;;;;25.02;13.57;;;1.60;99.90;;;;;;4774407;30;20047;-78
2021/01/02 12:22:25;;;;;;;21.88;13.55;;;1.60;99.90;;;;;;4788555;30;20058;-78
2021/01/02 12:24:56;;;;;;;20.58;13.23;;;1.60;99.90;;;;;;4756594;30;20067;-78
2021/01/02 12:27:28;;;;;;;22.75;14.05;;;1.50;99.90;;;;;;4771449;30;20056;-78
2021/01/02 12:29:55;;;;;;;24.15;14.20;;;1.60;99.90;;;;;;4770801;30;20052;-78
2021/01/02 12:32:25;;;;;;;22.33;13.88;;;1.50;99.90;;;;;;4770522;30;20116;-78
2021/01/02 12:34:57;;;;;;;26.42;15.20;;;1.50;99.90;;;;;;5565275;24;21345;-78
2021/01/02 12:37:24;;;;;;;28.73;16.75;;;1.50;99.90;;;;;;4776774;29;20409;-78
2021/01/02 12:39:50;;;;;;;28.60;16.88;;;1.50;99.90;;;;;;4792791;29;20499;-80
2021/01/02 12:42:22;;;;;;;25.17;15.57;;;1.40;99.90;;;;;;4779388;29;20063;-80
2021/01/02 12:44:54;;;;;;;30.10;16.23;;;1.40;99.90;;;;;;4792512;29;20503;-80
2021/01/02 12:47:26;;;;;;;26.10;16.27;;;1.30;99.90;;;;;;4777587;29;20058;-80
2021/01/02 12:49:52;;;;;;;27.75;14.77;;;1.30;99.90;;;;;;4792619;30;20051;-80
2021/01/02 12:52:19;;;;;;;23.52;14.02;;;1.30;99.90;;;;;;4777186;29;20051;-80
2021/01/02 12:54:51;;;;;;;23.55;14.15;;;1.30;99.90;;;;;;4778298;29;20538;-80
2021/01/02 12:57:24;;;;;;;26.35;14.60;;;1.20;99.90;;;;;;4792345;29;20042;-80
2021/01/02 12:59:56;;;;;;;25.40;13.30;;;1.30;99.90;;;;;;4805842;29;20085;-80
2021/01/02 13:02:28;;;;;;;25.05;14.32;;;1.20;99.90;;;;;;4806121;29;20058;-78
2021/01/02 13:05:01;;;;;;;24.42;13.32;;;1.10;99.90;;;;;;4792425;29;20486;-77
2021/01/02 13:07:27;;;;;;;27.48;14.95;;;1.20;99.90;;;;;;4795224;29;20074;-78
2021/01/02 13:09:59;;;;;;;26.27;13.90;;;1.30;99.90;;;;;;4795359;29;20491;-78
2021/01/02 13:12:26;;;;;;;27.10;13.82;;;1.20;99.90;;;;;;4809424;29;20046;-78
2021/01/02 13:14:52;;;;;;;26.92;13.05;;;1.10;99.90;;;;;;4809354;29;20047;-78
2021/01/02 13:17:19;;;;;;;23.95;13.23;;;1.10;99.90;;;;;;4794935;29;20057;-78
2021/01/02 13:19:51;;;;;;;25.33;14.90;;;1.10;99.90;;;;;;4794536;29;20058;-78
2021/01/02 13:22:22;;;;;;;25.60;13.10;;;1.10;99.90;;;;;;4775528;30;20054;-79